Time;durP1;ratioP1;P1;durP2;ratioP2;P2;SDS_P1;SDS_P2;PMS_P1;PMS_P2;Temp;Humidity;BMP_temperature;BMP_pressure;BME280_temperature;BME280_humidity;BME280_pressure;Samples;Min_cycle;Max_cycle;Signal;HPM_P1;HPM_P2
2024/02/19 00:01:29;;;;;;;1.77;1.50;;;16.40;1.00;;;;;;2613143;54;20523;-65
2024/02/19 00:03:55;;;;;;;1.40;1.30;;;16.40;1.00;;;;;;2613152;54;20242;-65
2024/02/19 00:06:23;;;;;;;1.77;1.27;;;16.40;1.00;;;;;;2610735;54;20419;-65
2024/02/19 00:08:50;;;;;;;1.50;1.40;;;16.40;1.00;;;;;;2611665;54;20427;-65
2024/02/19 00:11:17;;;;;;;1.40;1.30;;;16.40;1.00;;;;;;2613454;31;20918;-65
2024/02/19 00:13:43;;;;;;;2.13;1.47;;;16.30;1.00;;;;;;2611664;54;21449;-64
2024/02/19 00:16:09;;;;;;;1.40;1.23;;;16.40;1.00;;;;;;2612911;51;20439;-73
2024/02/19 00:18:35;;;;;;;1.50;1.40;;;16.40;1.00;;;;;;2612901;54;21016;-73
2024/02/19 00:21:02;;;;;;;1.50;1.20;;;16.40;1.00;;;;;;2612979;47;20174;-73
2024/02/19 00:23:28;;;;;;;1.80;1.60;;;16.40;1.00;;;;;;2613157;31;20682;-73
2024/02/19 00:25:54;;;;;;;1.50;1.10;;;16.40;1.00;;;;;;2612345;47;20457;-74
2024/02/19 00:28:19;;;;;;;1.70;1.60;;;16.40;1.00;;;;;;2612934;54;20950;-74
2024/02/19 00:30:45;;;;;;;1.50;1.30;;;16.40;1.00;;;;;;2612059;54;20145;-74
2024/02/19 00:33:11;;;;;;;1.70;1.60;;;16.40;1.00;;;;;;2612278;54;20274;-74
2024/02/19 00:35:36;;;;;;;2.30;1.87;;;16.40;1.00;;;;;;2611865;47;20169;-73
2024/02/19 00:38:02;;;;;;;1.80;1.60;;;16.40;1.00;;;;;;2611745;47;20196;-74
2024/02/19 00:40:28;;;;;;;1.50;1.40;;;16.40;1.00;;;;;;2612867;47;20228;-74
2024/02/19 00:42:54;;;;;;;1.10;1.00;;;16.40;1.00;;;;;;2611875;54;20867;-75
2024/02/19 00:45:20;;;;;;;2.13;1.30;;;16.40;1.00;;;;;;2612256;54;20657;-74
2024/02/19 00:47:45;;;;;;;1.77;1.30;;;16.40;1.00;;;;;;2612012;54;20681;-73
2024/02/19 00:50:11;;;;;;;1.20;1.10;;;16.40;1.00;;;;;;2611986;54;20503;-74
2024/02/19 00:52:38;;;;;;;1.10;1.00;;;16.40;1.00;;;;;;2612567;39;20599;-73
2024/02/19 00:55:05;;;;;;;1.40;1.17;;;16.40;1.00;;;;;;2612857;54;20158;-59
2024/02/19 00:57:30;;;;;;;1.60;1.00;;;16.40;1.00;;;;;;2612276;47;20424;-60
2024/02/19 00:59:56;;;;;;;1.90;1.57;;;16.40;1.00;;;;;;2612182;54;20399;-60
2024/02/19 01:02:22;;;;;;;2.37;1.40;;;16.40;1.00;;;;;;2613147;31;20678;-59
2024/02/19 01:04:49;;;;;;;1.73;1.30;;;16.40;1.00;;;;;;2612354;54;20160;-58
2024/02/19 01:07:15;;;;;;;1.20;1.03;;;16.40;1.00;;;;;;2612540;54;20179;-59
2024/02/19 01:09:41;;;;;;;1.20;1.10;;;16.40;1.00;;;;;;2612835;39;20699;-59
2024/02/19 01:12:08;;;;;;;2.07;1.00;;;16.40;1.00;;;;;;2612014;47;20408;-59
2024/02/19 01:14:33;;;;;;;1.87;1.30;;;16.40;1.00;;;;;;2612791;47;20168;-59
2024/02/19 01:16:59;;;;;;;1.30;1.20;;;16.40;1.00;;;;;;2612719;47;20452;-60
2024/02/19 01:19:25;;;;;;;1.20;1.10;;;16.40;1.00;;;;;;2613145;54;20143;-60
2024/02/19 01:21:50;;;;;;;1.70;1.10;;;16.40;1.00;;;;;;2612187;54;20154;-60
2024/02/19 01:24:16;;;;;;;1.63;1.00;;;16.40;1.00;;;;;;2612559;54;20156;-60
2024/02/19 01:26:42;;;;;;;1.23;0.97;;;16.40;1.00;;;;;;2612437;54;20174;-59
2024/02/19 01:29:07;;;;;;;1.40;1.17;;;16.30;1.00;;;;;;2612122;47;20161;-60
2024/02/19 01:31:33;;;;;;;3.23;1.30;;;16.30;1.00;;;;;;2612472;54;20166;-60
2024/02/19 01:34:00;;;;;;;1.63;1.40;;;16.40;1.00;;;;;;2612929;54;20208;-59
2024/02/19 01:36:26;;;;;;;2.53;1.30;;;16.30;1.00;;;;;;2612340;47;20413;-59
2024/02/19 01:38:52;;;;;;;1.53;1.10;;;16.30;1.00;;;;;;2613211;39;20898;-59
2024/02/19 01:41:17;;;;;;;2.87;1.50;;;16.40;1.00;;;;;;2612600;54;20412;-59
2024/02/19 01:43:43;;;;;;;1.90;1.30;;;16.40;1.00;;;;;;2612096;54;20194;-60
2024/02/19 01:46:10;;;;;;;1.43;1.30;;;16.30;1.00;;;;;;2612792;39;20556;-58
2024/02/19 01:48:36;;;;;;;1.40;1.30;;;16.30;1.00;;;;;;2612610;54;20277;-59
2024/02/19 01:51:02;;;;;;;1.67;1.00;;;16.30;1.00;;;;;;2612735;54;20415;-60
2024/02/19 01:53:29;;;;;;;1.30;1.20;;;16.30;1.00;;;;;;2611588;54;20422;-59
2024/02/19 01:55:55;;;;;;;2.17;1.20;;;16.30;1.00;;;;;;2612497;54;20388;-59
2024/02/19 01:58:21;;;;;;;2.17;1.20;;;16.30;1.00;;;;;;2612253;54;20439;-59
2024/02/19 02:00:48;;;;;;;1.90;1.63;;;16.30;1.00;;;;;;2611611;54;20397;-60
2024/02/19 02:03:20;;;;;;;2.20;2.00;;;16.30;1.00;;;;;;2612365;54;20454;-60
2024/02/19 02:05:47;;;;;;;1.30;1.20;;;16.30;1.00;;;;;;2611517;54;20411;-62
2024/02/19 02:08:13;;;;;;;1.87;1.20;;;16.30;1.00;;;;;;2612609;47;20424;-61
2024/02/19 02:10:39;;;;;;;1.63;1.20;;;16.30;1.00;;;;;;2612263;54;20525;-60
2024/02/19 02:13:04;;;;;;;2.03;1.07;;;16.30;1.00;;;;;;2612836;54;20874;-61
2024/02/19 02:15:30;;;;;;;1.70;1.13;;;16.30;1.00;;;;;;2612200;39;20596;-62
2024/02/19 02:17:55;;;;;;;1.87;1.30;;;16.30;1.00;;;;;;2612780;54;20147;-62
2024/02/19 02:20:21;;;;;;;1.23;1.10;;;16.30;1.00;;;;;;2612644;54;20776;-61
2024/02/19 02:22:48;;;;;;;1.57;1.17;;;16.30;1.00;;;;;;2612127;54;20172;-60
2024/02/19 02:25:13;;;;;;;1.90;1.20;;;16.40;1.00;;;;;;2612298;54;20173;-60
2024/02/19 02:27:39;;;;;;;2.53;1.30;;;16.30;1.00;;;;;;2611824;54;20423;-61
2024/02/19 02:30:06;;;;;;;2.90;1.70;;;16.30;1.00;;;;;;2611649;39;20625;-62
2024/02/19 02:32:33;;;;;;;1.57;1.40;;;16.30;1.00;;;;;;2612415;54;20183;-61
2024/02/19 02:34:59;;;;;;;1.23;1.00;;;16.30;1.00;;;;;;2612282;54;20401;-58
2024/02/19 02:37:26;;;;;;;1.60;1.30;;;16.40;1.00;;;;;;2612965;54;20454;-59
2024/02/19 02:39:52;;;;;;;1.33;1.20;;;16.30;1.00;;;;;;2611746;54;20388;-59
2024/02/19 02:42:18;;;;;;;1.90;1.30;;;16.40;1.00;;;;;;2612796;54;20544;-59
2024/02/19 02:44:44;;;;;;;2.60;1.40;;;16.40;1.00;;;;;;2611700;54;20958;-58
2024/02/19 02:47:09;;;;;;;2.60;0.90;;;16.30;1.00;;;;;;2612759;47;22082;-58
2024/02/19 02:49:35;;;;;;;2.90;1.60;;;16.30;1.00;;;;;;2613040;54;20712;-58
2024/02/19 02:52:01;;;;;;;2.77;1.83;;;16.30;1.00;;;;;;2612925;39;20588;-58
2024/02/19 02:54:26;;;;;;;1.70;1.10;;;16.30;1.00;;;;;;2612377;54;20166;-58
2024/02/19 02:56:52;;;;;;;1.87;1.00;;;16.30;1.00;;;;;;2612098;54;20762;-59
2024/02/19 02:59:17;;;;;;;1.33;1.00;;;16.30;1.00;;;;;;2611768;54;20156;-59
2024/02/19 03:01:43;;;;;;;1.73;1.10;;;16.30;1.00;;;;;;2612270;54;20250;-59
2024/02/19 03:04:09;;;;;;;1.83;1.00;;;16.30;1.00;;;;;;2612282;54;20652;-59
2024/02/19 03:06:34;;;;;;;1.30;1.20;;;16.30;1.00;;;;;;2611985;54;20164;-59
2024/02/19 03:09:00;;;;;;;3.00;1.50;;;16.30;1.00;;;;;;2610667;39;20661;-58
2024/02/19 03:11:26;;;;;;;1.57;1.20;;;16.30;1.00;;;;;;2612717;54;20159;-58
2024/02/19 03:13:52;;;;;;;3.07;1.37;;;16.30;1.00;;;;;;2612275;54;20148;-57
2024/02/19 03:16:18;;;;;;;1.97;1.10;;;16.30;1.00;;;;;;2612585;54;20152;-63
2024/02/19 03:18:45;;;;;;;2.53;1.20;;;16.30;1.00;;;;;;2612190;47;20505;-64
2024/02/19 03:21:12;;;;;;;1.20;1.07;;;16.30;1.00;;;;;;2612966;47;20669;-66
2024/02/19 03:23:39;;;;;;;1.47;1.33;;;16.30;1.00;;;;;;2612146;47;20473;-63
2024/02/19 03:26:04;;;;;;;1.33;1.23;;;16.30;1.00;;;;;;2611940;54;20444;-59
2024/02/19 03:28:30;;;;;;;2.10;0.93;;;16.30;1.00;;;;;;2612293;47;20542;-59
2024/02/19 03:30:56;;;;;;;1.10;1.00;;;16.30;1.00;;;;;;2611952;54;20230;-60
2024/02/19 03:33:22;;;;;;;3.77;1.30;;;16.30;1.00;;;;;;2612335;47;20168;-59
2024/02/19 03:35:48;;;;;;;1.20;1.10;;;16.30;1.00;;;;;;2613205;31;20622;-59
2024/02/19 03:38:13;;;;;;;1.77;1.23;;;16.30;1.00;;;;;;2611870;54;20391;-61
2024/02/19 03:40:39;;;;;;;1.83;1.00;;;16.30;1.00;;;;;;2612604;54;20186;-60
2024/02/19 03:43:04;;;;;;;2.03;1.20;;;16.30;1.00;;;;;;2611664;54;20219;-59
2024/02/19 03:45:32;;;;;;;1.83;1.27;;;16.30;1.00;;;;;;2612712;54;20187;-60
2024/02/19 03:47:58;;;;;;;1.40;1.07;;;16.30;1.00;;;;;;2611708;54;20200;-60
2024/02/19 03:50:24;;;;;;;2.90;1.53;;;16.30;1.00;;;;;;2612158;39;20784;-61
2024/02/19 03:52:50;;;;;;;1.20;1.10;;;16.30;1.00;;;;;;2612641;39;20563;-60
2024/02/19 03:55:16;;;;;;;1.77;1.30;;;16.30;1.00;;;;;;2612301;39;20572;-60
2024/02/19 03:57:41;;;;;;;3.50;1.90;;;16.30;1.00;;;;;;2611737;39;20817;-61
2024/02/19 04:00:09;;;;;;;1.13;0.90;;;16.30;1.00;;;;;;2611927;54;20407;-60
2024/02/19 04:02:36;;;;;;;1.10;1.00;;;16.30;1.00;;;;;;2611943;54;20155;-60
2024/02/19 04:05:01;;;;;;;1.67;1.30;;;16.30;1.00;;;;;;2611753;54;20450;-60
2024/02/19 04:07:27;;;;;;;1.30;1.10;;;16.30;1.00;;;;;;2611710;54;20400;-61
2024/02/19 04:09:53;;;;;;;1.20;1.10;;;16.30;1.00;;;;;;2612353;54;20169;-60
2024/02/19 04:12:18;;;;;;;1.57;1.10;;;16.30;1.00;;;;;;2611702;54;20178;-60
2024/02/19 04:14:44;;;;;;;1.47;1.03;;;16.30;1.00;;;;;;2612434;54;20183;-60
2024/02/19 04:17:10;;;;;;;1.33;1.23;;;16.30;1.00;;;;;;2612170;54;20174;-61
2024/02/19 04:19:35;;;;;;;1.63;1.10;;;16.30;1.00;;;;;;2613226;54;20252;-60
2024/02/19 04:22:01;;;;;;;2.13;1.30;;;16.30;1.00;;;;;;2612062;54;20155;-60
2024/02/19 04:24:26;;;;;;;1.50;0.97;;;16.30;1.00;;;;;;2611879;54;20163;-64
2024/02/19 04:26:52;;;;;;;1.83;1.33;;;16.30;1.00;;;;;;2612576;39;20333;-63
2024/02/19 04:29:18;;;;;;;2.30;1.13;;;16.30;1.00;;;;;;2610817;54;20724;-64
2024/02/19 04:31:43;;;;;;;1.30;1.20;;;16.30;1.00;;;;;;2612454;54;20174;-62
2024/02/19 04:34:09;;;;;;;2.20;1.30;;;16.30;1.00;;;;;;2612095;54;20709;-58
2024/02/19 04:36:35;;;;;;;2.00;1.20;;;16.30;1.00;;;;;;2611124;54;20863;-59
2024/02/19 04:39:00;;;;;;;1.00;0.90;;;16.30;1.00;;;;;;2612382;39;20436;-60
2024/02/19 04:41:26;;;;;;;2.10;1.27;;;16.30;1.00;;;;;;2611887;54;20159;-58
2024/02/19 04:43:52;;;;;;;1.57;1.00;;;16.30;1.00;;;;;;2611588;54;20162;-58
2024/02/19 04:46:18;;;;;;;1.50;1.23;;;16.30;1.00;;;;;;2612213;54;20165;-58
2024/02/19 04:48:44;;;;;;;1.00;0.90;;;16.30;1.00;;;;;;2612562;39;20572;-60
2024/02/19 04:51:10;;;;;;;1.60;1.20;;;16.30;1.00;;;;;;2611871;54;20406;-58
2024/02/19 04:53:35;;;;;;;1.50;1.10;;;16.30;1.00;;;;;;2611752;54;20159;-58
2024/02/19 04:56:01;;;;;;;1.17;0.93;;;16.30;1.00;;;;;;2612589;54;20439;-64
2024/02/19 04:58:27;;;;;;;1.33;0.93;;;16.30;1.00;;;;;;2611174;47;20167;-63
2024/02/19 05:00:52;;;;;;;2.23;1.10;;;16.30;1.00;;;;;;2611557;54;20193;-63
2024/02/19 05:03:18;;;;;;;1.97;1.13;;;16.30;1.00;;;;;;2611308;54;20150;-63
2024/02/19 05:05:44;;;;;;;1.13;1.00;;;16.30;1.00;;;;;;2611488;54;20157;-65
2024/02/19 05:08:09;;;;;;;2.17;1.10;;;16.30;1.00;;;;;;2612865;39;20583;-65
2024/02/19 05:10:35;;;;;;;1.23;1.10;;;16.30;1.00;;;;;;2611991;54;20571;-64
2024/02/19 05:13:01;;;;;;;1.37;1.17;;;16.30;1.00;;;;;;2612073;54;20689;-64
2024/02/19 05:15:26;;;;;;;1.37;1.00;;;16.30;1.00;;;;;;2612173;54;20167;-64
2024/02/19 05:17:52;;;;;;;3.13;1.97;;;16.30;1.00;;;;;;2611669;54;20263;-64
2024/02/19 05:20:18;;;;;;;2.30;1.47;;;16.30;1.00;;;;;;2611916;54;20209;-64
2024/02/19 05:22:46;;;;;;;1.20;1.00;;;16.30;1.00;;;;;;2611671;54;20695;-64
2024/02/19 05:25:11;;;;;;;1.70;1.60;;;16.30;1.00;;;;;;2612006;47;20202;-64
2024/02/19 05:27:37;;;;;;;1.83;1.30;;;16.30;1.00;;;;;;2611771;47;20400;-64
2024/02/19 05:30:03;;;;;;;2.60;1.27;;;16.30;1.00;;;;;;2612366;54;20158;-64
2024/02/19 05:32:29;;;;;;;1.63;0.90;;;16.30;1.00;;;;;;2611962;51;20165;-63
2024/02/19 05:34:54;;;;;;;2.07;1.37;;;16.30;1.00;;;;;;2612019;47;20453;-74
2024/02/19 05:37:20;;;;;;;2.97;1.57;;;16.30;1.00;;;;;;2611796;54;20155;-74
2024/02/19 05:39:46;;;;;;;3.37;1.17;;;16.30;1.00;;;;;;2612741;54;20618;-73
2024/02/19 05:42:11;;;;;;;1.60;1.00;;;16.30;1.00;;;;;;2612889;54;20437;-74
2024/02/19 05:44:37;;;;;;;2.27;1.20;;;16.30;1.00;;;;;;2613011;54;20154;-57
2024/02/19 05:47:03;;;;;;;1.90;1.40;;;16.30;1.00;;;;;;2613019;54;20174;-59
2024/02/19 05:49:28;;;;;;;2.40;1.10;;;16.30;1.00;;;;;;2612866;54;20169;-58
2024/02/19 05:51:54;;;;;;;1.30;1.03;;;16.30;1.00;;;;;;2612599;54;20928;-57
2024/02/19 05:54:23;;;;;;;1.87;1.00;;;16.30;1.00;;;;;;2612274;54;20194;-58
2024/02/19 05:56:48;;;;;;;1.90;1.30;;;16.30;1.00;;;;;;2612446;54;20171;-59
2024/02/19 05:59:14;;;;;;;2.83;1.50;;;16.30;1.00;;;;;;2612669;54;20515;-58
2024/02/19 06:01:40;;;;;;;1.80;1.00;;;16.30;1.00;;;;;;2612229;47;20175;-59
2024/02/19 06:04:05;;;;;;;2.50;1.43;;;16.30;1.00;;;;;;2611987;54;20166;-60
2024/02/19 06:06:31;;;;;;;4.20;1.43;;;16.30;1.00;;;;;;2612609;47;20167;-60
2024/02/19 06:08:57;;;;;;;4.13;1.20;;;16.30;1.00;;;;;;2611732;54;20233;-60
2024/02/19 06:11:23;;;;;;;2.90;1.30;;;16.30;1.00;;;;;;2612623;54;20162;-60
2024/02/19 06:13:49;;;;;;;1.40;1.17;;;16.30;1.00;;;;;;2612298;54;20238;-60
2024/02/19 06:16:15;;;;;;;5.90;1.50;;;16.30;1.00;;;;;;2612739;51;20991;-60
2024/02/19 06:18:41;;;;;;;1.43;1.10;;;16.30;1.00;;;;;;2612762;54;20173;-60
2024/02/19 06:21:07;;;;;;;1.60;1.23;;;16.30;1.00;;;;;;2612329;54;21093;-60
2024/02/19 06:23:32;;;;;;;2.60;1.63;;;16.30;1.00;;;;;;2612541;54;20150;-60
2024/02/19 06:25:59;;;;;;;1.70;1.23;;;16.30;1.00;;;;;;2612622;54;20190;-60
2024/02/19 06:28:25;;;;;;;2.13;1.17;;;16.30;1.00;;;;;;2612553;54;20162;-60
2024/02/19 06:30:50;;;;;;;2.13;1.10;;;16.30;1.00;;;;;;2612819;39;20493;-60
2024/02/19 06:33:16;;;;;;;1.77;1.40;;;16.30;1.00;;;;;;2612221;54;20164;-61
2024/02/19 06:35:42;;;;;;;1.80;1.50;;;16.30;1.00;;;;;;2612546;54;20155;-60
2024/02/19 06:38:08;;;;;;;1.67;1.00;;;16.30;1.00;;;;;;2612525;39;20807;-60
2024/02/19 06:40:34;;;;;;;3.33;1.60;;;16.30;1.00;;;;;;2612439;54;20275;-60
2024/02/19 06:43:00;;;;;;;1.33;0.90;;;16.30;1.00;;;;;;2612019;54;20444;-59
2024/02/19 06:45:26;;;;;;;1.67;1.20;;;16.30;1.00;;;;;;2612440;39;20563;-63
2024/02/19 06:47:51;;;;;;;1.90;1.30;;;16.30;1.00;;;;;;2612510;54;20454;-63
2024/02/19 06:50:17;;;;;;;2.33;1.30;;;16.30;1.00;;;;;;2612389;54;20164;-64
2024/02/19 06:52:45;;;;;;;2.10;1.20;;;16.30;1.00;;;;;;2612236;54;20165;-63
2024/02/19 06:55:16;;;;;;;1.80;1.30;;;16.30;1.00;;;;;;2611839;54;20720;-60
2024/02/19 06:57:42;;;;;;;4.50;1.30;;;16.30;1.00;;;;;;2612300;54;20496;-60
2024/02/19 07:00:11;;;;;;;2.53;1.13;;;16.30;1.00;;;;;;2611563;54;20412;-61
2024/02/19 07:02:38;;;;;;;2.20;1.73;;;16.30;1.00;;;;;;2612342;54;20431;-61
2024/02/19 07:05:05;;;;;;;3.43;1.60;;;16.30;1.00;;;;;;2612971;54;20424;-61
2024/02/19 07:07:32;;;;;;;2.07;1.70;;;16.30;1.00;;;;;;2612215;54;20469;-60
2024/02/19 07:09:58;;;;;;;4.70;1.20;;;16.30;1.00;;;;;;2612029;54;20532;-60
2024/02/19 07:12:23;;;;;;;1.97;1.40;;;16.30;1.00;;;;;;2611558;47;20405;-60
2024/02/19 07:14:49;;;;;;;2.50;1.50;;;16.30;1.00;;;;;;2612246;54;20754;-60
2024/02/19 07:17:15;;;;;;;3.53;1.40;;;16.30;1.00;;;;;;2612540;54;20158;-61
2024/02/19 07:19:40;;;;;;;2.77;1.33;;;16.30;1.00;;;;;;2612926;39;20608;-60
2024/02/19 07:22:06;;;;;;;2.30;1.37;;;16.30;1.00;;;;;;2612204;54;20207;-61
2024/02/19 07:24:32;;;;;;;1.60;1.50;;;16.30;1.00;;;;;;2612174;54;20166;-61
2024/02/19 07:26:58;;;;;;;2.23;1.70;;;16.30;1.00;;;;;;2611414;54;20192;-61
2024/02/19 07:29:24;;;;;;;4.33;1.30;;;16.30;1.00;;;;;;2611961;54;20418;-61
2024/02/19 07:31:51;;;;;;;2.80;2.20;;;16.30;1.00;;;;;;2612491;54;20254;-61
2024/02/19 07:34:16;;;;;;;2.30;2.10;;;16.30;1.00;;;;;;2611840;54;20514;-60
2024/02/19 07:36:45;;;;;;;3.33;1.90;;;16.30;1.00;;;;;;2611957;54;20967;-61
2024/02/19 07:39:11;;;;;;;4.40;2.17;;;16.30;1.00;;;;;;2612073;47;20185;-62
2024/02/19 07:41:37;;;;;;;2.97;1.40;;;16.30;1.00;;;;;;2612425;47;20516;-63
2024/02/19 07:44:04;;;;;;;2.03;1.43;;;16.30;1.00;;;;;;2611301;47;20393;-62
2024/02/19 07:46:29;;;;;;;1.70;1.50;;;16.30;1.00;;;;;;2611910;54;20178;-61
2024/02/19 07:48:55;;;;;;;5.30;1.40;;;16.30;1.00;;;;;;2612475;54;20454;-61
2024/02/19 07:51:20;;;;;;;2.00;1.80;;;16.30;1.00;;;;;;2611859;47;20174;-60
2024/02/19 07:53:47;;;;;;;3.50;1.77;;;16.30;1.00;;;;;;2612230;54;20173;-62
2024/02/19 07:56:13;;;;;;;1.90;1.70;;;16.30;1.00;;;;;;2612546;54;20159;-63
2024/02/19 07:58:38;;;;;;;2.53;1.83;;;16.30;1.00;;;;;;2611871;54;20405;-64
2024/02/19 08:01:04;;;;;;;2.30;1.70;;;16.30;1.00;;;;;;2612515;54;20173;-64
2024/02/19 08:03:31;;;;;;;3.00;1.53;;;16.30;1.00;;;;;;2611887;54;20231;-64
2024/02/19 08:05:56;;;;;;;2.90;1.97;;;16.30;1.00;;;;;;2612451;54;20186;-66
2024/02/19 08:08:22;;;;;;;2.50;1.40;;;16.30;1.00;;;;;;2612283;54;20988;-65
2024/02/19 08:10:48;;;;;;;3.20;1.80;;;16.30;1.00;;;;;;2611675;54;20182;-65
2024/02/19 08:13:14;;;;;;;2.80;1.70;;;16.30;1.00;;;;;;2612012;54;20167;-65
2024/02/19 08:15:41;;;;;;;2.27;1.83;;;16.30;1.00;;;;;;2610687;54;20199;-65
2024/02/19 08:18:07;;;;;;;2.93;1.60;;;16.30;1.00;;;;;;2612489;54;20542;-65
2024/02/19 08:20:33;;;;;;;1.80;1.53;;;16.30;1.00;;;;;;2612616;39;20799;-65
2024/02/19 08:22:59;;;;;;;2.47;1.20;;;16.30;1.00;;;;;;2611990;54;20423;-64
2024/02/19 08:25:25;;;;;;;2.00;1.80;;;16.30;1.00;;;;;;2611685;54;20413;-64
2024/02/19 08:27:51;;;;;;;2.70;1.70;;;16.30;1.00;;;;;;2612095;54;20162;-64
2024/02/19 08:30:16;;;;;;;2.33;1.60;;;16.30;1.00;;;;;;2611459;47;20234;-63
2024/02/19 08:32:42;;;;;;;3.30;1.87;;;16.30;1.00;;;;;;2612609;54;20162;-64
2024/02/19 08:35:08;;;;;;;3.03;1.47;;;16.30;1.00;;;;;;2611559;54;20281;-64
2024/02/19 08:37:33;;;;;;;2.17;1.50;;;16.30;1.00;;;;;;2611749;54;20745;-63
2024/02/19 08:39:59;;;;;;;1.97;1.33;;;16.30;1.00;;;;;;2611268;54;20384;-63
2024/02/19 08:42:25;;;;;;;3.10;1.80;;;16.30;1.00;;;;;;2612161;39;20614;-65
2024/02/19 08:44:50;;;;;;;1.83;1.57;;;16.30;1.00;;;;;;2611597;47;20159;-64
2024/02/19 08:47:17;;;;;;;1.87;1.57;;;16.30;1.00;;;;;;2612128;54;20291;-64
2024/02/19 08:49:43;;;;;;;2.07;1.47;;;16.30;1.00;;;;;;2611312;54;20155;-63
2024/02/19 08:52:09;;;;;;;5.50;2.23;;;16.30;1.00;;;;;;2611698;54;20548;-64
2024/02/19 08:54:35;;;;;;;2.70;1.70;;;16.30;1.00;;;;;;2612093;54;20403;-64
2024/02/19 08:57:01;;;;;;;3.93;1.83;;;16.40;1.00;;;;;;2612071;39;20563;-64
2024/02/19 08:59:27;;;;;;;2.27;1.47;;;16.30;1.00;;;;;;2612012;54;20430;-65
2024/02/19 09:01:53;;;;;;;1.70;1.60;;;16.30;1.00;;;;;;2611084;47;20170;-64
2024/02/19 09:04:22;;;;;;;2.97;2.00;;;16.40;1.00;;;;;;2612171;54;20161;-64
2024/02/19 09:06:47;;;;;;;2.33;1.90;;;16.40;1.00;;;;;;2611312;54;20491;-64
2024/02/19 09:09:13;;;;;;;2.20;1.77;;;16.40;1.00;;;;;;2612072;54;20421;-63
2024/02/19 09:11:39;;;;;;;3.87;2.00;;;16.40;1.00;;;;;;2611509;54;20745;-63
2024/02/19 09:14:04;;;;;;;2.43;1.50;;;16.40;1.00;;;;;;2611093;47;20605;-59
2024/02/19 09:16:33;;;;;;;1.87;1.67;;;16.40;1.00;;;;;;2613072;54;20411;-60
2024/02/19 09:18:59;;;;;;;3.77;2.63;;;16.40;1.00;;;;;;2612582;54;20193;-60
2024/02/19 09:21:25;;;;;;;4.50;2.17;;;16.40;1.00;;;;;;2613084;54;20428;-59
2024/02/19 09:23:51;;;;;;;3.80;1.93;;;16.40;1.00;;;;;;2612776;54;20415;-60
2024/02/19 09:26:17;;;;;;;1.40;1.30;;;16.40;1.00;;;;;;2613434;39;20631;-59
2024/02/19 09:28:44;;;;;;;1.93;1.57;;;16.40;1.00;;;;;;2612035;54;20431;-59
2024/02/19 09:31:10;;;;;;;2.30;1.60;;;16.40;1.00;;;;;;2612933;54;20178;-60
2024/02/19 09:33:35;;;;;;;2.80;1.73;;;16.40;1.00;;;;;;2612687;54;20431;-59
2024/02/19 09:36:03;;;;;;;1.83;1.57;;;16.50;1.00;;;;;;2612719;54;20403;-62
2024/02/19 09:38:29;;;;;;;2.53;1.73;;;16.50;1.00;;;;;;2612910;39;20748;-64
2024/02/19 09:40:55;;;;;;;1.97;1.77;;;16.40;1.00;;;;;;2612274;47;20422;-63
2024/02/19 09:43:21;;;;;;;3.80;2.10;;;16.40;1.00;;;;;;2612292;54;20411;-63
2024/02/19 09:45:50;;;;;;;2.10;1.90;;;16.60;1.00;;;;;;2612726;54;20159;-63
2024/02/19 09:48:21;;;;;;;1.97;1.80;;;16.50;1.00;;;;;;2611978;54;21130;-63
2024/02/19 09:50:48;;;;;;;2.73;1.90;;;16.60;1.00;;;;;;2613002;54;20404;-63
2024/02/19 09:53:27;;;;;;;2.10;1.77;;;16.50;1.00;;;;;;2612728;39;20760;-64
2024/02/19 09:55:53;;;;;;;1.70;1.33;;;16.50;1.00;;;;;;2612736;47;20432;-64
2024/02/19 09:58:19;;;;;;;2.90;1.30;;;16.50;1.00;;;;;;2612681;54;20452;-63
2024/02/19 10:00:45;;;;;;;3.30;1.43;;;16.50;1.00;;;;;;2612199;54;20496;-63
2024/02/19 10:03:14;;;;;;;3.67;2.07;;;16.50;1.00;;;;;;2612904;54;20400;-64
2024/02/19 10:05:40;;;;;;;2.33;1.43;;;16.50;1.00;;;;;;2613306;54;20393;-64
2024/02/19 10:08:12;;;;;;;2.87;1.80;;;16.50;1.00;;;;;;2612503;54;20948;-64
2024/02/19 10:10:40;;;;;;;3.07;1.83;;;16.50;1.00;;;;;;2612649;47;20189;-62
2024/02/19 10:13:08;;;;;;;3.10;1.80;;;16.50;1.00;;;;;;2612452;54;20420;-63
2024/02/19 10:15:33;;;;;;;2.00;1.53;;;16.50;1.00;;;;;;2612610;54;20424;-66
2024/02/19 10:17:59;;;;;;;2.93;1.63;;;16.50;1.00;;;;;;2613138;54;20386;-65
2024/02/19 10:20:25;;;;;;;1.53;1.40;;;16.50;1.00;;;;;;2612688;54;20149;-66
2024/02/19 10:22:50;;;;;;;4.00;1.77;;;16.50;1.00;;;;;;2612211;54;20186;-66
2024/02/19 10:25:17;;;;;;;2.00;1.60;;;16.50;1.00;;;;;;2612168;39;20607;-74
2024/02/19 10:27:44;;;;;;;2.57;1.83;;;16.50;1.00;;;;;;2612440;54;20205;-74
2024/02/19 10:30:12;;;;;;;2.50;1.53;;;16.50;1.00;;;;;;2613370;54;20406;-74
2024/02/19 10:32:42;;;;;;;2.23;1.40;;;16.50;1.00;;;;;;2613943;39;20786;-74
2024/02/19 10:35:08;;;;;;;2.03;1.60;;;16.50;1.00;;;;;;2613135;39;20917;-72
2024/02/19 10:37:35;;;;;;;2.30;1.57;;;16.50;1.00;;;;;;2612704;54;20427;-73
2024/02/19 10:40:01;;;;;;;1.90;1.60;;;16.50;1.00;;;;;;2613326;54;20998;-73
2024/02/19 10:42:28;;;;;;;2.13;1.90;;;16.50;1.00;;;;;;2612532;54;20404;-73
2024/02/19 10:44:54;;;;;;;3.60;1.97;;;16.50;1.00;;;;;;2612835;39;20750;-61
2024/02/19 10:47:20;;;;;;;3.20;2.33;;;16.50;1.00;;;;;;2611980;47;20998;-61
2024/02/19 10:49:49;;;;;;;2.07;1.80;;;16.50;1.00;;;;;;2612594;49;20432;-61
2024/02/19 10:52:15;;;;;;;3.40;2.13;;;16.50;1.00;;;;;;2613005;39;20827;-61
2024/02/19 10:54:45;;;;;;;2.83;1.67;;;16.50;1.00;;;;;;2612223;47;20448;-61
2024/02/19 10:57:18;;;;;;;2.73;1.70;;;16.50;1.00;;;;;;2612852;47;20160;-62
2024/02/19 10:59:44;;;;;;;3.50;2.57;;;16.50;1.00;;;;;;2612273;54;20463;-61
2024/02/19 11:02:11;;;;;;;4.90;2.00;;;16.50;1.00;;;;;;2612475;39;20901;-62
2024/02/19 11:04:37;;;;;;;2.63;1.80;;;16.50;1.00;;;;;;2612347;54;20420;-60
2024/02/19 11:07:03;;;;;;;4.33;1.60;;;16.50;1.00;;;;;;2612853;54;20459;-61
2024/02/19 11:09:36;;;;;;;2.97;2.33;;;16.50;1.00;;;;;;2611946;54;20797;-61
2024/02/19 11:12:03;;;;;;;2.23;2.03;;;16.50;1.00;;;;;;2612919;54;20490;-62
2024/02/19 11:14:33;;;;;;;2.77;2.00;;;16.50;1.00;;;;;;2612141;54;20411;-61
2024/02/19 11:17:00;;;;;;;2.60;1.70;;;16.50;1.00;;;;;;2612712;54;20428;-61
2024/02/19 11:19:27;;;;;;;2.70;1.60;;;16.40;1.00;;;;;;2611902;54;20434;-61
2024/02/19 11:22:09;;;;;;;2.00;1.80;;;16.50;1.00;;;;;;2611503;39;20861;-60
2024/02/19 11:24:35;;;;;;;3.23;2.20;;;16.50;1.00;;;;;;2612155;54;20408;-60
2024/02/19 11:27:04;;;;;;;2.80;1.83;;;16.40;1.00;;;;;;2612165;54;20396;-60
2024/02/19 11:29:30;;;;;;;2.60;1.93;;;16.50;1.00;;;;;;2612409;54;20452;-60
2024/02/19 11:32:04;;;;;;;2.10;1.90;;;16.50;1.00;;;;;;2613049;31;20927;-60
2024/02/19 11:34:31;;;;;;;1.90;1.73;;;16.50;1.00;;;;;;2612290;54;20404;-58
2024/02/19 11:37:04;;;;;;;3.03;1.80;;;16.50;1.00;;;;;;2612204;54;20482;-59
2024/02/19 11:39:31;;;;;;;2.30;1.93;;;16.50;1.00;;;;;;2612888;39;20918;-58
2024/02/19 11:41:58;;;;;;;2.77;2.23;;;16.50;1.00;;;;;;2611818;46;20452;-59
2024/02/19 11:44:24;;;;;;;2.47;2.27;;;16.50;1.00;;;;;;2612006;54;20936;-60
2024/02/19 11:46:50;;;;;;;4.20;2.53;;;16.50;1.00;;;;;;2611958;54;21047;-60
2024/02/19 11:49:17;;;;;;;3.50;2.47;;;16.50;1.00;;;;;;2612331;51;20544;-60
2024/02/19 11:51:44;;;;;;;3.10;2.07;;;16.50;1.00;;;;;;2612120;54;20207;-59
2024/02/19 11:54:11;;;;;;;1.97;1.77;;;16.50;1.00;;;;;;2612403;54;20420;-66
2024/02/19 11:56:52;;;;;;;4.13;2.13;;;16.50;1.00;;;;;;2612409;54;20421;-64
2024/02/19 11:59:21;;;;;;;2.60;2.20;;;16.50;1.00;;;;;;2612008;54;20388;-66
2024/02/19 12:01:53;;;;;;;2.90;2.20;;;16.50;1.00;;;;;;2611913;54;20410;-64
2024/02/19 12:04:19;;;;;;;3.07;2.20;;;16.50;1.00;;;;;;2611823;54;20519;-66
2024/02/19 12:06:45;;;;;;;2.67;2.00;;;16.50;1.00;;;;;;2612841;39;21141;-65
2024/02/19 12:09:11;;;;;;;2.20;2.00;;;16.50;1.00;;;;;;2612437;54;20214;-65
2024/02/19 12:11:40;;;;;;;3.00;1.90;;;16.50;1.00;;;;;;2612738;54;20548;-66
2024/02/19 12:14:07;;;;;;;2.30;2.03;;;16.50;1.00;;;;;;2611819;54;20427;-65
2024/02/19 12:16:33;;;;;;;1.90;1.80;;;16.50;1.00;;;;;;2612155;54;20420;-65
2024/02/19 12:18:59;;;;;;;2.17;1.90;;;16.50;1.00;;;;;;2612393;47;20423;-65
2024/02/19 12:21:27;;;;;;;3.57;2.10;;;16.50;1.00;;;;;;2613601;31;20982;-65
2024/02/19 12:23:54;;;;;;;3.50;2.20;;;16.50;1.00;;;;;;2612249;47;20177;-65
2024/02/19 12:26:20;;;;;;;2.77;2.03;;;16.50;1.00;;;;;;2611963;51;20419;-65
2024/02/19 12:28:46;;;;;;;2.73;1.90;;;16.60;1.00;;;;;;2612315;53;20405;-65
2024/02/19 12:31:12;;;;;;;2.63;2.13;;;16.50;1.00;;;;;;2611988;47;20497;-65
2024/02/19 12:33:38;;;;;;;3.50;2.17;;;16.60;1.00;;;;;;2611894;54;20163;-65
2024/02/19 12:36:12;;;;;;;2.27;2.00;;;16.60;1.00;;;;;;2612365;54;20686;-64
2024/02/19 12:38:45;;;;;;;1.93;1.70;;;16.60;1.00;;;;;;2612339;47;20431;-63
2024/02/19 12:41:16;;;;;;;2.73;2.10;;;16.60;1.00;;;;;;2611844;54;20415;-64
2024/02/19 12:43:44;;;;;;;2.87;2.47;;;16.70;1.00;;;;;;2612179;54;20430;-63
2024/02/19 12:46:11;;;;;;;2.53;1.90;;;16.60;1.00;;;;;;2611369;54;21043;-60
2024/02/19 12:48:42;;;;;;;3.13;1.77;;;16.70;1.00;;;;;;2612619;54;20420;-60
2024/02/19 12:51:08;;;;;;;4.83;2.10;;;16.60;1.00;;;;;;2612924;39;20809;-61
2024/02/19 12:53:35;;;;;;;2.90;2.13;;;16.60;1.00;;;;;;2612907;54;20437;-62